Time;durP1;ratioP1;P1;durP2;ratioP2;P2;SDS_P1;SDS_P2;PMS_P1;PMS_P2;Temp;Humidity;BMP_temperature;BMP_pressure;BME280_temperature;BME280_humidity;BME280_pressure;Samples;Min_cycle;Max_cycle;Signal;HPM_P1;HPM_P2
2022/07/05 00:01:47;;;;;;;3.50;3.20;;;20.60;92.50;;;;;;5113813;28;20442;-54
2022/07/05 00:04:16;;;;;;;5.10;3.63;;;20.60;92.50;;;;;;5114032;28;20482;-54
2022/07/05 00:09:24;;;;;;;3.30;3.00;;;20.60;92.80;;;;;;5117727;28;20442;-54
2022/07/05 00:11:51;;;;;;;4.60;3.33;;;20.40;92.60;;;;;;5117825;28;20478;-54
2022/07/05 00:14:20;;;;;;;3.77;3.27;;;20.30;93.00;;;;;;5118163;28;20457;-55
2022/07/05 00:16:47;;;;;;;4.80;3.70;;;20.10;93.20;;;;;;5117737;28;20539;-54
2022/07/05 00:19:15;;;;;;;4.10;3.70;;;20.10;93.60;;;;;;5118024;28;20585;-55
2022/07/05 00:21:42;;;;;;;3.93;3.60;;;20.20;93.80;;;;;;5117707;28;20525;-54
2022/07/05 00:24:10;;;;;;;4.40;3.30;;;20.20;93.80;;;;;;5118302;28;20427;-54
2022/07/05 00:26:37;;;;;;;5.80;3.53;;;20.20;93.90;;;;;;5117948;28;20448;-54
2022/07/05 00:29:04;;;;;;;4.13;3.30;;;20.30;94.30;;;;;;5117790;28;20469;-54
2022/07/05 00:31:31;;;;;;;3.63;3.33;;;20.30;94.50;;;;;;5117725;28;20561;-54
2022/07/05 00:33:58;;;;;;;4.60;3.77;;;20.20;94.10;;;;;;5117328;28;20486;-54
2022/07/05 00:36:28;;;;;;;3.70;3.10;;;20.20;94.00;;;;;;5117818;28;20422;-54
2022/07/05 00:38:55;;;;;;;4.80;3.90;;;20.10;94.60;;;;;;5117751;28;20445;-54
2022/07/05 00:41:22;;;;;;;4.33;3.97;;;20.00;94.60;;;;;;5117290;28;20444;-54
2022/07/05 00:44:02;;;;;;;3.27;3.07;;;20.00;95.20;;;;;;5117550;28;20529;-54
2022/07/05 00:46:29;;;;;;;6.10;3.37;;;20.10;95.00;;;;;;5117582;28;20426;-54
2022/07/05 00:48:58;;;;;;;3.53;3.23;;;20.10;95.10;;;;;;5118066;28;20442;-55
2022/07/05 00:51:29;;;;;;;4.97;2.97;;;20.00;94.90;;;;;;5117341;28;20533;-54
2022/07/05 00:53:57;;;;;;;3.00;2.80;;;20.00;94.80;;;;;;5117459;28;20762;-54
2022/07/05 00:56:25;;;;;;;4.07;3.50;;;19.70;95.00;;;;;;5117035;28;20446;-54
2022/07/05 00:58:53;;;;;;;3.70;3.40;;;19.60;95.10;;;;;;5117272;28;20443;-54
2022/07/05 01:01:21;;;;;;;3.87;3.13;;;19.60;95.40;;;;;;5117171;28;20549;-54
2022/07/05 01:03:48;;;;;;;2.90;2.70;;;19.70;95.10;;;;;;5116761;28;20534;-54
2022/07/05 01:06:17;;;;;;;2.60;2.40;;;19.70;95.50;;;;;;5116957;28;20924;-54
2022/07/05 01:08:47;;;;;;;2.63;2.43;;;19.80;95.60;;;;;;5116883;28;20809;-54
2022/07/05 01:11:15;;;;;;;3.17;2.70;;;19.80;95.20;;;;;;5116740;28;20469;-54
2022/07/05 01:13:42;;;;;;;7.20;2.80;;;19.70;95.30;;;;;;5116946;28;20482;-54
2022/07/05 01:16:10;;;;;;;3.13;2.83;;;19.80;95.50;;;;;;5116446;28;20565;-54
2022/07/05 01:18:37;;;;;;;2.57;2.37;;;19.70;95.50;;;;;;5116832;28;20475;-54
2022/07/05 01:21:05;;;;;;;3.27;2.77;;;19.70;95.40;;;;;;5116477;28;20466;-54
2022/07/05 01:23:34;;;;;;;3.77;2.50;;;19.40;95.50;;;;;;5116495;28;20941;-55
2022/07/05 01:26:02;;;;;;;4.00;2.90;;;19.20;95.70;;;;;;5116751;28;20450;-54
2022/07/05 01:28:30;;;;;;;4.70;2.63;;;19.30;95.70;;;;;;5116465;28;20941;-54
2022/07/05 01:30:57;;;;;;;2.83;2.63;;;19.30;95.80;;;;;;5116645;28;20561;-54
2022/07/05 01:33:29;;;;;;;3.00;2.70;;;19.40;95.80;;;;;;5116635;28;20482;-54
2022/07/05 01:35:57;;;;;;;3.23;2.93;;;19.30;95.80;;;;;;5116303;28;20450;-54
2022/07/05 01:38:25;;;;;;;5.90;2.87;;;19.40;96.00;;;;;;5116260;28;20451;-54
2022/07/05 01:40:53;;;;;;;2.90;2.70;;;19.50;96.40;;;;;;5116413;28;20519;-54
2022/07/05 01:43:21;;;;;;;5.27;3.40;;;19.50;96.50;;;;;;5116116;28;20800;-54
2022/07/05 01:45:50;;;;;;;3.77;2.90;;;19.50;96.60;;;;;;5116032;28;20442;-54
2022/07/05 01:48:20;;;;;;;3.50;3.30;;;19.50;96.80;;;;;;5116360;28;20546;-54
2022/07/05 01:50:49;;;;;;;3.17;2.87;;;19.30;96.40;;;;;;5115928;28;20995;-54
2022/07/05 01:53:19;;;;;;;4.70;2.60;;;19.20;96.50;;;;;;5116204;28;20506;-55
2022/07/05 01:55:46;;;;;;;3.83;2.87;;;19.00;96.80;;;;;;5116174;28;20439;-55
2022/07/05 01:58:15;;;;;;;4.20;3.03;;;18.90;97.00;;;;;;5115928;28;20431;-54
2022/07/05 02:00:44;;;;;;;2.73;2.53;;;18.80;97.20;;;;;;5115711;28;20553;-54
2022/07/05 02:03:12;;;;;;;7.00;2.80;;;18.70;97.00;;;;;;5116064;28;20443;-54
2022/07/05 02:05:39;;;;;;;3.80;2.83;;;18.70;97.10;;;;;;5115652;28;20947;-54
2022/07/05 02:08:07;;;;;;;2.97;2.67;;;18.80;97.00;;;;;;5115740;28;20949;-54
2022/07/05 02:10:35;;;;;;;3.07;2.87;;;18.80;97.00;;;;;;5115875;28;20916;-54
2022/07/05 02:13:03;;;;;;;2.90;2.57;;;18.70;97.40;;;;;;5115539;28;20481;-54
2022/07/05 02:15:33;;;;;;;3.07;2.60;;;18.70;97.60;;;;;;5115299;28;20994;-54
2022/07/05 02:18:00;;;;;;;2.87;2.67;;;18.80;97.70;;;;;;5115761;28;20450;-54
2022/07/05 02:20:27;;;;;;;2.60;2.40;;;18.80;97.50;;;;;;5115378;28;20490;-54
2022/07/05 02:22:54;;;;;;;4.33;2.47;;;18.70;97.60;;;;;;5115658;28;20438;-54
2022/07/05 02:25:22;;;;;;;2.93;2.73;;;18.60;97.70;;;;;;5115322;28;20541;-54
2022/07/05 02:27:50;;;;;;;4.80;3.10;;;18.50;98.00;;;;;;5115562;28;20480;-54
2022/07/05 02:30:17;;;;;;;6.33;2.60;;;18.40;98.10;;;;;;5114612;28;20466;-54
2022/07/05 02:32:45;;;;;;;3.10;2.80;;;18.40;98.30;;;;;;5115165;28;20498;-54
2022/07/05 02:35:13;;;;;;;3.37;2.57;;;18.50;98.50;;;;;;5115058;28;20461;-54
2022/07/05 02:37:41;;;;;;;3.20;2.50;;;18.70;98.20;;;;;;5115023;28;20545;-55
2022/07/05 02:40:10;;;;;;;2.97;2.60;;;18.60;98.20;;;;;;5115245;28;20516;-54
2022/07/05 02:42:37;;;;;;;3.17;2.87;;;18.60;97.80;;;;;;5115266;28;20537;-54
2022/07/05 02:45:05;;;;;;;2.20;2.00;;;18.50;98.30;;;;;;5115248;28;20446;-54
2022/07/05 02:47:32;;;;;;;2.50;2.30;;;18.40;98.40;;;;;;5114864;28;20449;-54
2022/07/05 02:50:03;;;;;;;2.60;2.40;;;18.30;98.40;;;;;;5114733;28;21043;-54
2022/07/05 02:52:31;;;;;;;4.73;2.50;;;18.40;99.10;;;;;;5114730;28;20554;-54
2022/07/05 02:54:58;;;;;;;4.03;2.77;;;18.50;98.40;;;;;;5114695;28;20451;-54
2022/07/05 02:57:25;;;;;;;4.30;3.30;;;18.30;99.20;;;;;;5115038;28;20538;-54
2022/07/05 02:59:54;;;;;;;3.43;3.13;;;18.40;99.00;;;;;;5114628;28;20516;-54
2022/07/05 03:02:22;;;;;;;4.73;2.50;;;18.40;99.00;;;;;;5114597;28;20791;-54
2022/07/05 03:04:49;;;;;;;3.63;3.00;;;18.40;99.10;;;;;;5114836;28;20897;-54
2022/07/05 03:07:18;;;;;;;6.63;3.20;;;18.40;99.20;;;;;;5114859;28;20474;-54
2022/07/05 03:09:45;;;;;;;4.83;2.80;;;18.40;99.50;;;;;;5114747;28;20462;-55
2022/07/05 03:12:12;;;;;;;3.80;2.87;;;18.50;99.70;;;;;;5114397;28;20542;-54
2022/07/05 03:14:39;;;;;;;4.63;3.03;;;18.50;99.80;;;;;;5114740;28;20538;-54
2022/07/05 03:17:06;;;;;;;4.27;3.00;;;18.50;99.50;;;;;;5113173;28;20492;-54
2022/07/05 03:19:33;;;;;;;3.37;3.07;;;18.30;99.50;;;;;;5114573;28;20467;-54
2022/07/05 03:22:01;;;;;;;4.10;3.10;;;18.10;99.90;;;;;;5114274;28;20489;-53
2022/07/05 03:24:29;;;;;;;3.10;2.80;;;18.20;99.90;;;;;;5114580;28;20447;-54
2022/07/05 03:26:56;;;;;;;3.87;3.57;;;18.30;99.90;;;;;;5114177;28;20442;-54
2022/07/05 03:29:24;;;;;;;5.00;2.87;;;18.10;99.90;;;;;;5114426;28;20542;-54
2022/07/05 03:31:51;;;;;;;2.73;2.53;;;18.10;99.90;;;;;;5114433;28;20475;-54
2022/07/05 03:34:18;;;;;;;3.53;3.03;;;18.20;99.90;;;;;;5113877;28;21072;-54
2022/07/05 03:36:45;;;;;;;3.30;3.00;;;18.10;99.90;;;;;;5114437;28;20447;-54
2022/07/05 03:39:12;;;;;;;4.30;3.30;;;17.90;99.90;;;;;;5113964;28;20458;-54
2022/07/05 03:41:41;;;;;;;3.00;2.80;;;17.80;99.90;;;;;;5113206;28;20484;-55
2022/07/05 03:44:08;;;;;;;3.50;3.20;;;18.00;99.90;;;;;;5113976;28;20470;-54
2022/07/05 03:46:35;;;;;;;3.77;2.83;;;18.10;99.90;;;;;;5114299;28;20537;-55
2022/07/05 03:49:02;;;;;;;5.13;3.47;;;18.10;99.90;;;;;;5113886;28;20533;-55
2022/07/05 03:51:29;;;;;;;3.00;2.70;;;18.00;99.90;;;;;;5114211;28;20443;-55
2022/07/05 03:53:57;;;;;;;4.10;2.50;;;17.90;99.90;;;;;;5113833;28;20474;-55
2022/07/05 03:56:24;;;;;;;3.50;3.17;;;17.90;99.90;;;;;;5114157;28;20845;-55
2022/07/05 03:58:53;;;;;;;3.77;3.13;;;18.00;99.90;;;;;;5113725;28;21023;-55
2022/07/05 04:01:21;;;;;;;2.93;2.67;;;18.10;99.90;;;;;;5113633;28;20869;-55
2022/07/05 04:03:48;;;;;;;3.80;3.50;;;18.10;99.90;;;;;;5113879;28;20445;-55
2022/07/05 04:06:15;;;;;;;3.10;2.47;;;18.20;99.90;;;;;;5113668;28;20898;-55
2022/07/05 04:08:42;;;;;;;3.07;2.87;;;18.20;99.90;;;;;;5113663;28;20486;-55
2022/07/05 04:11:12;;;;;;;3.80;3.20;;;18.20;99.90;;;;;;5113575;28;21036;-55
2022/07/05 04:13:40;;;;;;;3.03;2.80;;;18.20;99.90;;;;;;5114315;28;20485;-55
2022/07/05 04:16:09;;;;;;;4.83;3.10;;;18.20;99.90;;;;;;5113505;28;20497;-55
2022/07/05 04:18:36;;;;;;;3.53;2.70;;;18.20;99.90;;;;;;5113893;28;20501;-54
2022/07/05 04:21:04;;;;;;;2.87;2.40;;;18.30;99.90;;;;;;5113811;28;20463;-54
2022/07/05 04:23:31;;;;;;;3.70;2.70;;;18.20;99.90;;;;;;5113590;28;20926;-55
2022/07/05 04:25:58;;;;;;;3.17;2.83;;;18.00;99.90;;;;;;5113485;28;20445;-55
2022/07/05 04:28:26;;;;;;;4.83;2.93;;;17.80;99.90;;;;;;5113437;28;20983;-54
2022/07/05 04:30:53;;;;;;;2.30;2.10;;;17.80;99.90;;;;;;5113691;28;20502;-54
2022/07/05 04:33:21;;;;;;;3.53;2.93;;;17.80;99.90;;;;;;5113592;28;20478;-54
2022/07/05 04:35:49;;;;;;;3.27;2.97;;;17.80;99.90;;;;;;5113891;28;20451;-54
2022/07/05 04:38:16;;;;;;;3.57;3.27;;;17.90;99.90;;;;;;5113696;28;20495;-55
2022/07/05 04:40:43;;;;;;;4.70;3.97;;;18.00;99.90;;;;;;5113257;28;21029;-55
2022/07/05 04:43:11;;;;;;;4.30;2.80;;;18.10;99.90;;;;;;5113256;28;20435;-55
2022/07/05 04:45:39;;;;;;;5.20;3.13;;;18.10;99.90;;;;;;5114053;28;20446;-55
2022/07/05 04:48:06;;;;;;;3.50;3.20;;;18.20;99.90;;;;;;5113175;28;20786;-54
2022/07/05 04:50:35;;;;;;;3.40;3.10;;;18.20;99.90;;;;;;5113403;28;20502;-55
2022/07/05 04:53:02;;;;;;;4.73;4.07;;;18.20;99.90;;;;;;5113769;28;21025;-55
2022/07/05 04:55:30;;;;;;;6.10;3.70;;;18.30;99.90;;;;;;5117290;28;20842;-55
2022/07/05 04:57:57;;;;;;;3.70;3.40;;;18.30;99.90;;;;;;5117202;27;20481;-55
2022/07/05 05:00:24;;;;;;;6.13;3.53;;;18.30;99.90;;;;;;5116793;28;20462;-55
2022/07/05 05:02:51;;;;;;;5.20;3.90;;;18.30;99.90;;;;;;5116992;28;20457;-55
2022/07/05 05:05:18;;;;;;;4.93;3.83;;;18.40;99.90;;;;;;5117109;28;20458;-55
2022/07/05 05:07:47;;;;;;;4.13;3.83;;;18.50;99.90;;;;;;5117561;28;20442;-55
2022/07/05 05:10:14;;;;;;;4.47;3.80;;;18.50;99.90;;;;;;5116788;28;20924;-56
2022/07/05 05:12:41;;;;;;;2.93;2.73;;;18.60;99.90;;;;;;5116765;28;20530;-55
2022/07/05 05:15:09;;;;;;;4.30;3.90;;;18.60;99.90;;;;;;5116743;28;20451;-55
2022/07/05 05:17:38;;;;;;;3.10;2.90;;;18.60;99.90;;;;;;5116545;28;20431;-55
2022/07/05 05:20:08;;;;;;;3.90;3.10;;;18.60;99.90;;;;;;5116396;28;20813;-55
2022/07/05 05:22:35;;;;;;;3.80;3.50;;;18.70;99.90;;;;;;5116548;28;20451;-55
2022/07/05 05:25:04;;;;;;;4.27;3.40;;;18.80;99.90;;;;;;5116516;28;20438;-55
2022/07/05 05:27:31;;;;;;;2.90;2.70;;;18.80;99.90;;;;;;5116473;28;20533;-55
2022/07/05 05:29:59;;;;;;;2.63;2.43;;;18.80;99.10;;;;;;5116334;28;20574;-55
2022/07/05 05:32:31;;;;;;;2.60;2.40;;;19.00;99.90;;;;;;5116292;28;20862;-55
2022/07/05 05:34:59;;;;;;;2.93;2.30;;;;;;;;;;5116177;28;20565;-55
2022/07/05 05:37:26;;;;;;;2.43;2.07;;;19.10;99.70;;;;;;5115823;28;20533;-55
2022/07/05 05:39:53;;;;;;;2.50;2.30;;;19.20;99.80;;;;;;5116258;28;20555;-55
2022/07/05 05:42:22;;;;;;;3.40;2.30;;;19.30;99.90;;;;;;5116217;28;20442;-55
2022/07/05 05:44:49;;;;;;;2.70;2.50;;;19.40;99.90;;;;;;5115865;28;20469;-55
2022/07/05 05:47:16;;;;;;;2.87;2.57;;;19.40;99.10;;;;;;5116114;28;20446;-55
2022/07/05 05:49:43;;;;;;;3.47;1.93;;;19.50;99.10;;;;;;5115676;28;20472;-54
2022/07/05 05:52:10;;;;;;;5.97;2.30;;;19.50;98.20;;;;;;5115914;28;20529;-54
2022/07/05 05:54:38;;;;;;;2.10;1.93;;;19.60;96.80;;;;;;5115205;28;20554;-55
2022/07/05 05:57:05;;;;;;;2.23;2.00;;;19.70;96.10;;;;;;5115461;28;20478;-55
2022/07/05 05:59:34;;;;;;;1.83;1.73;;;19.70;94.70;;;;;;5115310;28;20468;-55
2022/07/05 06:02:01;;;;;;;3.87;2.23;;;19.70;95.20;;;;;;5115473;28;20442;-54
2022/07/05 06:04:28;;;;;;;3.23;2.10;;;19.80;95.30;;;;;;5114860;28;20902;-55
2022/07/05 06:06:55;;;;;;;4.70;2.00;;;19.90;95.10;;;;;;5116127;28;20462;-55
2022/07/05 06:09:23;;;;;;;3.03;2.37;;;19.90;95.40;;;;;;5115808;27;20542;-55
2022/07/05 06:11:50;;;;;;;4.40;2.20;;;20.00;96.10;;;;;;5115341;28;20453;-54
2022/07/05 06:14:17;;;;;;;3.27;2.10;;;20.00;94.70;;;;;;5115021;28;20510;-55
2022/07/05 06:16:46;;;;;;;2.33;1.80;;;20.10;94.70;;;;;;5115481;28;20991;-55
2022/07/05 06:19:13;;;;;;;3.47;1.70;;;20.20;94.80;;;;;;5114978;28;20442;-54
2022/07/05 06:21:40;;;;;;;2.63;2.30;;;20.30;94.70;;;;;;5115231;28;20447;-54
2022/07/05 06:24:08;;;;;;;2.90;2.23;;;20.20;95.30;;;;;;5114908;28;20798;-55
2022/07/05 06:26:35;;;;;;;4.60;2.50;;;20.20;95.40;;;;;;5115015;28;20500;-55
2022/07/05 06:29:02;;;;;;;2.80;2.10;;;20.10;94.70;;;;;;5115131;28;20442;-55
2022/07/05 06:31:29;;;;;;;5.90;2.50;;;20.30;94.80;;;;;;5115226;28;20582;-55
2022/07/05 06:33:58;;;;;;;3.10;2.10;;;20.30;94.50;;;;;;5115393;28;20494;-55
2022/07/05 06:36:25;;;;;;;2.20;2.00;;;20.40;93.40;;;;;;5114723;28;20893;-55
2022/07/05 06:38:52;;;;;;;2.30;2.10;;;20.50;93.80;;;;;;5114638;28;20482;-55
2022/07/05 06:41:19;;;;;;;3.10;2.80;;;20.60;94.00;;;;;;5114744;28;20500;-55
2022/07/05 06:43:46;;;;;;;3.70;2.27;;;20.50;93.60;;;;;;5114638;28;20466;-55
2022/07/05 06:46:14;;;;;;;3.33;2.60;;;20.60;93.00;;;;;;5115071;28;20947;-55
2022/07/05 06:48:41;;;;;;;2.33;2.10;;;20.70;93.00;;;;;;5114821;28;20901;-56
2022/07/05 06:51:10;;;;;;;2.80;2.00;;;20.70;92.90;;;;;;5114743;28;20462;-56
2022/07/05 06:53:37;;;;;;;5.17;2.30;;;20.80;92.50;;;;;;5114543;28;20564;-56
2022/07/05 06:56:05;;;;;;;3.13;2.50;;;20.90;92.90;;;;;;5114529;28;20449;-55
2022/07/05 06:58:32;;;;;;;6.23;3.57;;;21.00;92.60;;;;;;5114280;28;20482;-56
2022/07/05 07:00:59;;;;;;;3.47;2.07;;;21.10;92.50;;;;;;5114422;28;20588;-56
2022/07/05 07:03:26;;;;;;;2.10;1.80;;;21.20;92.40;;;;;;5114329;27;20437;-56
2022/07/05 07:05:53;;;;;;;2.30;2.10;;;21.30;91.50;;;;;;5114666;28;20905;-56
2022/07/05 07:11:09;;;;;;;3.40;1.90;;;22.30;91.40;;;;;;5096243;28;20479;-56
2022/07/05 07:13:36;;;;;;;2.47;1.97;;;23.30;90.20;;;;;;5114273;28;20519;-56
2022/07/05 07:16:04;;;;;;;6.40;1.90;;;23.70;87.70;;;;;;5113837;28;20479;-56
2022/07/05 07:18:32;;;;;;;2.70;1.80;;;24.50;87.40;;;;;;5114805;28;20504;-56
2022/07/05 07:20:59;;;;;;;4.43;2.97;;;24.80;83.50;;;;;;5113963;28;20470;-54
2022/07/05 07:23:28;;;;;;;2.23;2.03;;;25.50;81.50;;;;;;5114305;28;20929;-56
2022/07/05 07:25:55;;;;;;;3.30;1.90;;;26.40;80.10;;;;;;5114237;28;20484;-56
2022/07/05 07:28:23;;;;;;;5.30;2.53;;;26.70;78.80;;;;;;5113943;28;20450;-56
2022/07/05 07:30:51;;;;;;;3.63;1.80;;;26.70;76.80;;;;;;5113872;28;20471;-56
2022/07/05 07:33:18;;;;;;;3.83;1.67;;;26.90;77.60;;;;;;5114135;28;20537;-56
2022/07/05 07:35:45;;;;;;;3.27;2.07;;;27.30;74.70;;;;;;5114069;28;20818;-56
2022/07/05 07:38:12;;;;;;;5.07;2.10;;;26.90;76.70;;;;;;5113614;28;21036;-56
2022/07/05 07:40:41;;;;;;;6.47;4.10;;;26.70;75.40;;;;;;5113577;28;20568;-56
2022/07/05 07:43:08;;;;;;;2.73;1.90;;;27.00;75.00;;;;;;5113646;28;20944;-56
2022/07/05 07:45:35;;;;;;;2.07;1.87;;;27.00;74.40;;;;;;5114008;28;20806;-57
2022/07/05 07:48:02;;;;;;;2.50;1.73;;;27.80;71.10;;;;;;5113975;28;20447;-57
2022/07/05 07:50:29;;;;;;;3.70;1.87;;;28.00;71.40;;;;;;5113552;28;20549;-56
2022/07/05 07:52:56;;;;;;;2.83;1.63;;;28.40;71.10;;;;;;5113567;28;21004;-56
2022/07/05 07:55:24;;;;;;;2.73;1.63;;;28.70;71.10;;;;;;5113861;28;20479;-56
2022/07/05 07:57:52;;;;;;;2.00;1.57;;;29.10;70.80;;;;;;5113801;28;20526;-56
2022/07/05 08:00:20;;;;;;;1.70;1.60;;;29.40;78.10;;;;;;5113582;28;20973;-57
2022/07/05 08:02:47;;;;;;;3.37;1.83;;;29.90;67.20;;;;;;5113707;28;20549;-57
2022/07/05 08:05:14;;;;;;;3.07;1.70;;;29.60;69.50;;;;;;5113928;28;20482;-57
2022/07/05 08:07:41;;;;;;;4.27;1.83;;;29.40;67.70;;;;;;5113494;28;20482;-57
2022/07/05 08:10:09;;;;;;;1.60;1.50;;;29.30;67.80;;;;;;5113410;28;20462;-57
2022/07/05 08:12:37;;;;;;;2.03;1.80;;;28.70;66.10;;;;;;5114088;28;20537;-57
2022/07/05 08:15:07;;;;;;;2.60;2.00;;;29.10;67.60;;;;;;5113322;28;20819;-57
2022/07/05 08:17:35;;;;;;;2.10;1.50;;;29.90;65.40;;;;;;5113332;28;20480;-57
2022/07/05 08:22:47;;;;;;;1.80;1.70;;;30.40;64.60;;;;;;5113653;28;20398;-57
2022/07/05 08:25:16;;;;;;;8.93;2.20;;;30.20;64.30;;;;;;5113549;28;20495;-57
2022/07/05 08:27:44;;;;;;;1.73;1.53;;;30.80;65.10;;;;;;5113810;28;20814;-57
2022/07/05 08:30:13;;;;;;;3.30;1.87;;;31.10;64.70;;;;;;5117510;28;20470;-57
2022/07/05 08:32:41;;;;;;;2.17;1.50;;;;;;;;;;5117273;28;20474;-57
2022/07/05 08:35:09;;;;;;;7.23;2.60;;;31.50;60.50;;;;;;5117626;28;20517;-56
2022/07/05 08:37:36;;;;;;;2.30;2.10;;;30.60;64.90;;;;;;5117172;28;20932;-57
2022/07/05 08:40:08;;;;;;;2.10;1.90;;;31.00;65.00;;;;;;5117451;27;20492;-57
2022/07/05 08:42:36;;;;;;;2.70;1.83;;;31.20;62.20;;;;;;5117440;28;20513;-57
2022/07/05 08:45:04;;;;;;;3.23;2.40;;;31.00;59.80;;;;;;5117369;28;20452;-57
2022/07/05 08:47:34;;;;;;;2.60;2.30;;;31.00;61.20;;;;;;5116880;28;20485;-57
2022/07/05 08:50:03;;;;;;;2.27;2.03;;;31.60;59.50;;;;;;5117209;28;20472;-56
2022/07/05 08:52:31;;;;;;;1.93;1.73;;;32.00;60.00;;;;;;5117121;28;20465;-57
2022/07/05 08:54:59;;;;;;;2.07;1.80;;;31.30;59.70;;;;;;5115492;28;20470;-57
2022/07/05 08:57:26;;;;;;;2.30;2.10;;;31.20;59.00;;;;;;5116786;28;20446;-57
2022/07/05 08:59:53;;;;;;;2.63;1.70;;;31.60;61.00;;;;;;5116920;28;20552;-56
2022/07/05 09:02:21;;;;;;;2.33;2.13;;;31.80;58.60;;;;;;5116671;28;20897;-56
2022/07/05 09:04:52;;;;;;;2.20;2.00;;;32.10;58.60;;;;;;5116738;28;20477;-56
2022/07/05 09:07:23;;;;;;;3.33;2.00;;;32.00;58.00;;;;;;5116684;28;20432;-56
2022/07/05 09:09:51;;;;;;;3.10;2.23;;;31.60;59.00;;;;;;5116295;28;20578;-56
2022/07/05 09:12:18;;;;;;;2.33;1.70;;;32.30;56.70;;;;;;5116605;28;20495;-56
2022/07/05 09:14:45;;;;;;;1.70;1.60;;;32.30;57.40;;;;;;5116374;28;20572;-56
2022/07/05 09:17:14;;;;;;;2.73;2.03;;;32.20;57.20;;;;;;5116233;28;20924;-56
2022/07/05 09:19:41;;;;;;;1.93;1.70;;;32.40;56.00;;;;;;5116283;28;20469;-56
2022/07/05 09:22:10;;;;;;;3.00;1.80;;;32.70;56.00;;;;;;5116363;28;20800;-56
2022/07/05 09:24:45;;;;;;;2.90;1.50;;;32.50;54.10;;;;;;5116172;28;20924;-56
2022/07/05 09:27:13;;;;;;;4.53;1.80;;;32.50;54.80;;;;;;5116265;28;20452;-56
2022/07/05 09:29:52;;;;;;;3.03;2.30;;;32.60;56.00;;;;;;5116406;28;20492;-56
2022/07/05 09:32:24;;;;;;;3.00;1.93;;;32.10;55.00;;;;;;5116738;28;20453;-56
2022/07/05 09:34:52;;;;;;;2.37;1.87;;;32.20;55.40;;;;;;5116361;28;20568;-56
2022/07/05 09:37:20;;;;;;;2.20;1.90;;;32.10;54.40;;;;;;5116261;28;20442;-56
2022/07/05 09:39:47;;;;;;;2.17;1.33;;;32.30;54.90;;;;;;5114273;28;20462;-56
2022/07/05 09:42:17;;;;;;;2.20;1.70;;;;;;;;;;5115773;28;20549;-57
2022/07/05 09:44:46;;;;;;;5.53;2.43;;;33.40;54.80;;;;;;5115525;28;20499;-57
2022/07/05 09:47:15;;;;;;;2.70;1.53;;;33.60;53.40;;;;;;5116137;28;20873;-57
2022/07/05 09:49:44;;;;;;;4.20;1.80;;;32.10;53.90;;;;;;5115825;28;20502;-57
2022/07/05 09:52:12;;;;;;;3.53;2.00;;;32.40;53.40;;;;;;5115837;28;20446;-57
2022/07/05 09:54:41;;;;;;;1.70;1.60;;;32.70;53.40;;;;;;5115795;28;20488;-56
2022/07/05 09:57:10;;;;;;;2.40;1.50;;;33.10;54.80;;;;;;5115629;28;20446;-57
2022/07/05 09:59:37;;;;;;;2.37;1.80;;;33.70;52.20;;;;;;5115733;28;20466;-57
2022/07/05 10:02:05;;;;;;;1.63;1.53;;;33.90;51.80;;;;;;5115699;28;21005;-57
2022/07/05 10:04:32;;;;;;;6.40;1.93;;;33.80;51.50;;;;;;5115515;28;20541;-57
2022/07/05 10:06:59;;;;;;;4.07;1.60;;;34.00;52.80;;;;;;5115258;28;20874;-57
2022/07/05 10:09:27;;;;;;;1.83;1.60;;;33.20;50.70;;;;;;5115621;28;20470;-57
2022/07/05 10:11:55;;;;;;;3.77;1.40;;;33.10;50.00;;;;;;5115387;28;20485;-57
2022/07/05 10:14:23;;;;;;;4.73;1.87;;;33.00;49.60;;;;;;5116053;28;20438;-57
2022/07/05 10:17:00;;;;;;;4.60;1.53;;;32.60;51.00;;;;;;5114970;28;20813;-57
2022/07/05 10:19:32;;;;;;;3.30;1.50;;;32.90;50.80;;;;;;5115255;28;20482;-57
2022/07/05 10:21:59;;;;;;;4.00;1.30;;;33.60;50.50;;;;;;5115117;28;20438;-57
2022/07/05 10:24:31;;;;;;;2.17;1.77;;;34.20;49.90;;;;;;5115286;28;20851;-57
2022/07/05 10:26:59;;;;;;;2.53;1.40;;;33.90;49.20;;;;;;5115097;28;20487;-57
2022/07/05 10:29:27;;;;;;;1.80;1.70;;;33.90;47.90;;;;;;5115205;28;20488;-57
2022/07/05 10:31:54;;;;;;;3.83;1.67;;;33.40;50.20;;;;;;5115247;28;20495;-57
2022/07/05 10:34:23;;;;;;;3.83;1.40;;;34.20;48.90;;;;;;5114981;28;20434;-57
2022/07/05 10:36:50;;;;;;;1.80;1.70;;;34.10;48.90;;;;;;5114828;28;20944;-57
2022/07/05 10:39:17;;;;;;;1.83;1.73;;;33.90;49.60;;;;;;5114815;28;20462;-56
2022/07/05 10:41:46;;;;;;;1.80;1.70;;;33.90;48.80;;;;;;5115023;28;20442;-56
2022/07/05 10:44:27;;;;;;;2.03;1.53;;;33.60;49.10;;;;;;5114452;28;20446;-56
2022/07/05 10:47:09;;;;;;;2.67;1.40;;;33.90;48.00;;;;;;5114865;28;20426;-57
2022/07/05 10:49:40;;;;;;;1.70;1.60;;;33.30;48.40;;;;;;5114248;28;20465;-57
2022/07/05 10:52:24;;;;;;;1.70;1.60;;;33.60;48.30;;;;;;5114053;28;20442;-57
2022/07/05 10:55:20;;;;;;;3.67;1.73;;;34.00;49.40;;;;;;5114505;28;20466;-56
2022/07/05 10:58:22;;;;;;;1.90;1.70;;;33.80;48.50;;;;;;5114557;28;20801;-57
2022/07/05 11:01:29;;;;;;;2.73;2.20;;;33.90;48.50;;;;;;5114389;28;20877;-57
2022/07/05 11:04:19;;;;;;;3.40;1.50;;;33.70;47.80;;;;;;5114117;28;20928;-57
2022/07/05 11:06:49;;;;;;;2.27;1.60;;;33.10;47.50;;;;;;5114516;28;20495;-57
2022/07/05 11:09:18;;;;;;;2.07;1.87;;;32.40;48.80;;;;;;5114376;28;20418;-56
2022/07/05 11:11:47;;;;;;;2.30;1.40;;;33.20;48.20;;;;;;5114112;28;20545;-56
2022/07/05 11:14:40;;;;;;;6.40;1.60;;;33.10;48.00;;;;;;5114063;28;20553;-57
2022/07/05 11:17:25;;;;;;;2.60;1.60;;;33.90;47.80;;;;;;5113744;28;20477;-56
2022/07/05 11:20:13;;;;;;;1.60;1.40;;;33.40;47.60;;;;;;5113888;28;20476;-57
2022/07/05 11:22:42;;;;;;;3.00;1.70;;;33.90;47.60;;;;;;5114191;28;20458;-56
2022/07/05 11:25:12;;;;;;;6.77;1.70;;;33.80;48.20;;;;;;5114170;28;20529;-56
2022/07/05 11:28:07;;;;;;;1.60;1.30;;;33.00;48.20;;;;;;5114287;28;20453;-56
2022/07/05 11:30:55;;;;;;;1.80;1.70;;;33.50;46.70;;;;;;5108393;28;21051;-56
2022/07/05 11:33:31;;;;;;;1.60;1.50;;;33.30;46.90;;;;;;5113693;28;20966;-57
2022/07/05 11:35:59;;;;;;;4.30;2.03;;;32.60;47.00;;;;;;5113527;28;20481;-56
2022/07/05 11:38:26;;;;;;;2.00;1.70;;;33.20;48.20;;;;;;5113942;28;20441;-56
2022/07/05 11:40:54;;;;;;;4.73;2.70;;;32.80;48.60;;;;;;5113339;28;20945;-57
2022/07/05 11:43:28;;;;;;;3.23;1.90;;;32.00;48.50;;;;;;5113128;28;20439;-56
2022/07/05 11:46:00;;;;;;;3.93;1.80;;;31.80;49.10;;;;;;5113552;28;20808;-57
2022/07/05 11:48:30;;;;;;;2.77;2.33;;;31.70;48.40;;;;;;5113612;28;20446;-56
2022/07/05 11:50:57;;;;;;;2.30;1.60;;;32.50;48.70;;;;;;5113623;28;20971;-57
2022/07/05 11:53:30;;;;;;;3.20;1.70;;;32.40;47.90;;;;;;5113721;28;20450;-56
2022/07/05 11:55:59;;;;;;;3.70;2.03;;;32.10;48.00;;;;;;5113528;28;20509;-57
2022/07/05 11:58:32;;;;;;;4.40;1.67;;;32.20;49.80;;;;;;5113389;28;21001;-56
2022/07/05 12:01:01;;;;;;;2.30;1.67;;;31.50;48.20;;;;;;5113356;28;20980;-57
2022/07/05 12:03:29;;;;;;;1.93;1.67;;;31.80;49.80;;;;;;5115157;28;20519;-57
2022/07/05 12:05:56;;;;;;;3.63;1.77;;;32.50;49.00;;;;;;5118460;28;20449;-56
2022/07/05 12:08:25;;;;;;;1.77;1.67;;;32.70;48.90;;;;;;5117929;28;20836;-56
2022/07/05 12:13:48;;;;;;;2.00;1.80;;;32.50;48.20;;;;;;5117778;28;20892;-56
2022/07/05 12:16:15;;;;;;;1.60;1.40;;;32.10;49.40;;;;;;5117579;28;20473;-56
2022/07/05 12:18:51;;;;;;;2.30;1.90;;;32.30;49.80;;;;;;5117499;28;20442;-56
2022/07/05 12:21:20;;;;;;;2.30;2.10;;;32.20;48.80;;;;;;5117367;28;20461;-56
2022/07/05 12:23:48;;;;;;;2.20;1.50;;;32.90;49.60;;;;;;5117459;28;20450;-56
2022/07/05 12:26:16;;;;;;;2.10;1.63;;;33.20;48.30;;;;;;5117364;28;20438;-56
2022/07/05 12:28:44;;;;;;;4.03;2.00;;;32.80;49.10;;;;;;5117566;27;20469;-56
2022/07/05 12:31:19;;;;;;;2.20;1.43;;;32.80;49.10;;;;;;5117407;28;20831;-56
2022/07/05 12:33:46;;;;;;;2.47;2.00;;;32.40;49.50;;;;;;5116814;28;20924;-57
2022/07/05 12:36:16;;;;;;;3.67;1.80;;;32.20;49.10;;;;;;5117077;28;20476;-56
2022/07/05 12:38:44;;;;;;;2.50;1.90;;;32.70;49.50;;;;;;5117000;28;20874;-56
2022/07/05 12:41:12;;;;;;;2.20;1.90;;;33.00;49.00;;;;;;5117135;28;20466;-56
2022/07/05 12:43:53;;;;;;;2.60;1.87;;;32.80;48.40;;;;;;5117077;28;20442;-56
2022/07/05 12:46:21;;;;;;;2.10;1.90;;;32.80;49.80;;;;;;5116838;28;20494;-55
2022/07/05 12:48:55;;;;;;;4.00;1.90;;;33.20;48.80;;;;;;5116922;27;20472;-56
2022/07/05 12:51:37;;;;;;;2.20;2.00;;;32.60;48.40;;;;;;5117654;28;20474;-56
2022/07/05 12:59:38;;;;;;;3.37;2.13;;;33.20;48.70;;;;;;5116580;28;20457;-56
2022/07/05 13:02:06;;;;;;;3.77;2.40;;;32.30;48.00;;;;;;5116603;28;20528;-55
2022/07/05 13:04:33;;;;;;;3.20;1.80;;;32.20;48.40;;;;;;5116824;28;20478;-56
2022/07/05 13:07:03;;;;;;;3.40;2.00;;;32.50;48.80;;;;;;5116515;28;20617;-56
2022/07/05 13:09:34;;;;;;;2.83;1.80;;;32.20;48.70;;;;;;5116521;28;20862;-56
2022/07/05 13:12:09;;;;;;;1.97;1.77;;;32.20;49.30;;;;;;5116822;28;20483;-56
2022/07/05 13:14:38;;;;;;;2.23;1.80;;;31.60;49.00;;;;;;5116613;28;20450;-56